sensor_id;sensor_type;location;lat;lon;timestamp;P1;durP1;ratioP1;P2;durP2;ratioP2
46365;SDS011;32073;49.166;8.076;2022-08-11T00:00:17;1.45;;;1.20;;
46365;SDS011;32073;49.166;8.076;2022-08-11T00:04:18;1.48;;;1.00;;
46365;SDS011;32073;49.166;8.076;2022-08-11T00:08:24;1.20;;;1.10;;
46365;SDS011;32073;49.166;8.076;2022-08-11T00:12:29;1.58;;;1.30;;
46365;SDS011;32073;49.166;8.076;2022-08-11T00:16:30;2.05;;;1.08;;
46365;SDS011;32073;49.166;8.076;2022-08-11T00:20:32;2.28;;;1.20;;
46365;SDS011;32073;49.166;8.076;2022-08-11T00:24:39;2.00;;;1.27;;
46365;SDS011;32073;49.166;8.076;2022-08-11T00:28:40;1.25;;;0.98;;
46365;SDS011;32073;49.166;8.076;2022-08-11T00:32:43;1.77;;;1.23;;
46365;SDS011;32073;49.166;8.076;2022-08-11T00:36:55;2.25;;;1.00;;
46365;SDS011;32073;49.166;8.076;2022-08-11T00:49:51;1.33;;;1.02;;
46365;SDS011;32073;49.166;8.076;2022-08-11T00:58:56;1.95;;;1.08;;
46365;SDS011;32073;49.166;8.076;2022-08-11T01:15:52;1.13;;;0.70;;
46365;SDS011;32073;49.166;8.076;2022-08-11T01:48:42;3.38;;;1.20;;
46365;SDS011;32073;49.166;8.076;2022-08-11T01:57:39;1.00;;;0.90;;
46365;SDS011;32073;49.166;8.076;2022-08-11T02:06:57;1.42;;;0.90;;
46365;SDS011;32073;49.166;8.076;2022-08-11T02:11:29;2.65;;;1.20;;
46365;SDS011;32073;49.166;8.076;2022-08-11T02:15:34;1.77;;;1.23;;
46365;SDS011;32073;49.166;8.076;2022-08-11T02:19:49;1.50;;;1.23;;
46365;SDS011;32073;49.166;8.076;2022-08-11T02:24:27;1.63;;;1.23;;
46365;SDS011;32073;49.166;8.076;2022-08-11T02:33:07;1.92;;;1.15;;
46365;SDS011;32073;49.166;8.076;2022-08-11T02:46:21;2.80;;;1.08;;
46365;SDS011;32073;49.166;8.076;2022-08-11T02:50:28;1.15;;;0.90;;
46365;SDS011;32073;49.166;8.076;2022-08-11T02:54:44;1.63;;;0.95;;
46365;SDS011;32073;49.166;8.076;2022-08-11T03:04:02;5.50;;;1.23;;
46365;SDS011;32073;49.166;8.076;2022-08-11T03:08:26;2.00;;;1.20;;
46365;SDS011;32073;49.166;8.076;2022-08-11T03:17:18;1.13;;;1.00;;
46365;SDS011;32073;49.166;8.076;2022-08-11T03:21:25;2.65;;;1.10;;
46365;SDS011;32073;49.166;8.076;2022-08-11T03:25:45;1.60;;;1.20;;
46365;SDS011;32073;49.166;8.076;2022-08-11T03:30:27;1.17;;;0.90;;
46365;SDS011;32073;49.166;8.076;2022-08-11T03:34:42;1.60;;;1.15;;
46365;SDS011;32073;49.166;8.076;2022-08-11T03:39:08;2.35;;;1.00;;
46365;SDS011;32073;49.166;8.076;2022-08-11T04:10:27;1.58;;;1.25;;
46365;SDS011;32073;49.166;8.076;2022-08-11T04:29:17;2.22;;;1.05;;
46365;SDS011;32073;49.166;8.076;2022-08-11T04:56:57;1.50;;;1.15;;
46365;SDS011;32073;49.166;8.076;2022-08-11T05:06:51;1.88;;;1.20;;
46365;SDS011;32073;49.166;8.076;2022-08-11T05:15:41;5.65;;;1.20;;
46365;SDS011;32073;49.166;8.076;2022-08-11T05:20:10;1.77;;;1.38;;
46365;SDS011;32073;49.166;8.076;2022-08-11T05:24:46;1.27;;;1.13;;
46365;SDS011;32073;49.166;8.076;2022-08-11T05:29:23;2.03;;;1.40;;
46365;SDS011;32073;49.166;8.076;2022-08-11T05:34:17;2.85;;;1.30;;
46365;SDS011;32073;49.166;8.076;2022-08-11T05:38:55;2.92;;;1.50;;
46365;SDS011;32073;49.166;8.076;2022-08-11T05:43:19;1.65;;;1.20;;
46365;SDS011;32073;49.166;8.076;2022-08-11T05:47:41;2.63;;;1.65;;
46365;SDS011;32073;49.166;8.076;2022-08-11T05:52:01;1.95;;;1.30;;
46365;SDS011;32073;49.166;8.076;2022-08-11T05:56:21;1.67;;;1.13;;
46365;SDS011;32073;49.166;8.076;2022-08-11T06:00:23;2.15;;;1.15;;
46365;SDS011;32073;49.166;8.076;2022-08-11T06:04:25;4.00;;;1.33;;
46365;SDS011;32073;49.166;8.076;2022-08-11T06:08:27;3.38;;;1.25;;
46365;SDS011;32073;49.166;8.076;2022-08-11T06:12:32;2.83;;;1.73;;
46365;SDS011;32073;49.166;8.076;2022-08-11T06:16:36;3.42;;;1.20;;
46365;SDS011;32073;49.166;8.076;2022-08-11T06:20:46;4.40;;;1.52;;
46365;SDS011;32073;49.166;8.076;2022-08-11T06:24:50;1.45;;;1.33;;
46365;SDS011;32073;49.166;8.076;2022-08-11T06:28:57;2.72;;;1.52;;
46365;SDS011;32073;49.166;8.076;2022-08-11T06:33:00;1.85;;;1.33;;
46365;SDS011;32073;49.166;8.076;2022-08-11T06:37:24;6.53;;;1.63;;
46365;SDS011;32073;49.166;8.076;2022-08-11T06:46:03;5.72;;;1.63;;
46365;SDS011;32073;49.166;8.076;2022-08-11T06:50:07;2.13;;;1.55;;
46365;SDS011;32073;49.166;8.076;2022-08-11T06:54:36;3.35;;;1.40;;
46365;SDS011;32073;49.166;8.076;2022-08-11T06:59:10;2.10;;;1.17;;
46365;SDS011;32073;49.166;8.076;2022-08-11T07:03:31;3.03;;;1.40;;
46365;SDS011;32073;49.166;8.076;2022-08-11T07:12:42;4.75;;;1.50;;
46365;SDS011;32073;49.166;8.076;2022-08-11T07:17:03;5.68;;;1.63;;
46365;SDS011;32073;49.166;8.076;2022-08-11T07:25:40;2.78;;;1.33;;
46365;SDS011;32073;49.166;8.076;2022-08-11T07:30:08;3.25;;;1.73;;
46365;SDS011;32073;49.166;8.076;2022-08-11T07:34:20;1.67;;;1.20;;
46365;SDS011;32073;49.166;8.076;2022-08-11T07:38:33;2.28;;;1.50;;
46365;SDS011;32073;49.166;8.076;2022-08-11T07:42:43;2.00;;;1.58;;
46365;SDS011;32073;49.166;8.076;2022-08-11T07:46:46;2.30;;;1.50;;
46365;SDS011;32073;49.166;8.076;2022-08-11T07:51:07;3.08;;;1.38;;
46365;SDS011;32073;49.166;8.076;2022-08-11T07:55:27;1.92;;;1.55;;
46365;SDS011;32073;49.166;8.076;2022-08-11T07:59:30;3.63;;;1.23;;
46365;SDS011;32073;49.166;8.076;2022-08-11T08:03:49;2.33;;;1.30;;
46365;SDS011;32073;49.166;8.076;2022-08-11T08:08:09;2.92;;;1.30;;
46365;SDS011;32073;49.166;8.076;2022-08-11T08:12:32;2.13;;;1.50;;
46365;SDS011;32073;49.166;8.076;2022-08-11T08:16:52;2.25;;;1.30;;
46365;SDS011;32073;49.166;8.076;2022-08-11T08:21:13;3.47;;;1.45;;
46365;SDS011;32073;49.166;8.076;2022-08-11T08:25:15;3.15;;;1.55;;
46365;SDS011;32073;49.166;8.076;2022-08-11T08:29:17;4.53;;;1.40;;
46365;SDS011;32073;49.166;8.076;2022-08-11T08:33:38;3.65;;;1.30;;
46365;SDS011;32073;49.166;8.076;2022-08-11T08:37:41;5.20;;;1.73;;
46365;SDS011;32073;49.166;8.076;2022-08-11T08:41:42;1.90;;;1.52;;
46365;SDS011;32073;49.166;8.076;2022-08-11T08:45:43;2.25;;;1.25;;
46365;SDS011;32073;49.166;8.076;2022-08-11T08:49:45;3.25;;;1.52;;
46365;SDS011;32073;49.166;8.076;2022-08-11T08:53:50;3.35;;;1.88;;
46365;SDS011;32073;49.166;8.076;2022-08-11T08:57:53;2.00;;;1.60;;
46365;SDS011;32073;49.166;8.076;2022-08-11T09:01:57;1.42;;;1.25;;
46365;SDS011;32073;49.166;8.076;2022-08-11T09:06:01;2.85;;;1.30;;
46365;SDS011;32073;49.166;8.076;2022-08-11T09:10:02;1.90;;;1.40;;
46365;SDS011;32073;49.166;8.076;2022-08-11T09:14:05;1.95;;;1.42;;
46365;SDS011;32073;49.166;8.076;2022-08-11T09:18:05;1.90;;;1.40;;
46365;SDS011;32073;49.166;8.076;2022-08-11T09:22:08;2.42;;;1.27;;
46365;SDS011;32073;49.166;8.076;2022-08-11T09:26:28;2.33;;;1.20;;
46365;SDS011;32073;49.166;8.076;2022-08-11T09:30:49;1.88;;;1.50;;
46365;SDS011;32073;49.166;8.076;2022-08-11T09:34:54;1.83;;;1.40;;
46365;SDS011;32073;49.166;8.076;2022-08-11T09:38:56;2.72;;;1.42;;
46365;SDS011;32073;49.166;8.076;2022-08-11T09:43:17;2.65;;;1.40;;
46365;SDS011;32073;49.166;8.076;2022-08-11T09:47:37;3.72;;;1.80;;
46365;SDS011;32073;49.166;8.076;2022-08-11T09:51:42;2.60;;;1.60;;
46365;SDS011;32073;49.166;8.076;2022-08-11T09:55:43;2.67;;;1.45;;
46365;SDS011;32073;49.166;8.076;2022-08-11T09:59:45;2.05;;;1.38;;
46365;SDS011;32073;49.166;8.076;2022-08-11T10:03:47;3.58;;;1.73;;
46365;SDS011;32073;49.166;8.076;2022-08-11T10:07:49;3.60;;;1.58;;
46365;SDS011;32073;49.166;8.076;2022-08-11T10:11:55;3.50;;;1.40;;
46365;SDS011;32073;49.166;8.076;2022-08-11T10:15:58;3.03;;;1.30;;
46365;SDS011;32073;49.166;8.076;2022-08-11T10:20:03;4.13;;;1.30;;
46365;SDS011;32073;49.166;8.076;2022-08-11T10:24:08;2.53;;;1.58;;
46365;SDS011;32073;49.166;8.076;2022-08-11T10:28:29;3.03;;;1.60;;
46365;SDS011;32073;49.166;8.076;2022-08-11T10:32:31;2.50;;;1.25;;
46365;SDS011;32073;49.166;8.076;2022-08-11T10:36:51;2.78;;;1.20;;
46365;SDS011;32073;49.166;8.076;2022-08-11T10:40:53;1.13;;;1.02;;
46365;SDS011;32073;49.166;8.076;2022-08-11T10:45:13;1.95;;;1.30;;
46365;SDS011;32073;49.166;8.076;2022-08-11T10:49:33;2.13;;;1.08;;
46365;SDS011;32073;49.166;8.076;2022-08-11T10:53:35;3.80;;;1.35;;
46365;SDS011;32073;49.166;8.076;2022-08-11T10:57:58;1.42;;;1.33;;
46365;SDS011;32073;49.166;8.076;2022-08-11T11:02:17;5.35;;;1.95;;
46365;SDS011;32073;49.166;8.076;2022-08-11T11:06:23;5.00;;;1.48;;
46365;SDS011;32073;49.166;8.076;2022-08-11T11:10:57;5.13;;;1.08;;
46365;SDS011;32073;49.166;8.076;2022-08-11T11:14:58;1.92;;;1.20;;
46365;SDS011;32073;49.166;8.076;2022-08-11T11:19:21;4.20;;;1.20;;
46365;SDS011;32073;49.166;8.076;2022-08-11T11:23:25;2.90;;;1.05;;
46365;SDS011;32073;49.166;8.076;2022-08-11T11:32:23;8.32;;;1.50;;
46365;SDS011;32073;49.166;8.076;2022-08-11T11:37:09;1.83;;;1.27;;
46365;SDS011;32073;49.166;8.076;2022-08-11T11:41:03;6.28;;;1.27;;
46365;SDS011;32073;49.166;8.076;2022-08-11T11:45:23;3.95;;;1.17;;
46365;SDS011;32073;49.166;8.076;2022-08-11T11:49:26;1.48;;;1.17;;
46365;SDS011;32073;49.166;8.076;2022-08-11T11:53:28;3.13;;;1.20;;
46365;SDS011;32073;49.166;8.076;2022-08-11T11:57:29;9.18;;;1.45;;
46365;SDS011;32073;49.166;8.076;2022-08-11T12:01:50;1.70;;;1.10;;
46365;SDS011;32073;49.166;8.076;2022-08-11T12:05:53;1.77;;;1.15;;
46365;SDS011;32073;49.166;8.076;2022-08-11T12:09:55;1.85;;;1.20;;
46365;SDS011;32073;49.166;8.076;2022-08-11T12:14:02;1.73;;;1.30;;
46365;SDS011;32073;49.166;8.076;2022-08-11T12:18:04;1.27;;;0.95;;
46365;SDS011;32073;49.166;8.076;2022-08-11T12:22:05;2.38;;;1.10;;
46365;SDS011;32073;49.166;8.076;2022-08-11T12:26:24;2.05;;;1.10;;
46365;SDS011;32073;49.166;8.076;2022-08-11T12:30:58;2.42;;;1.10;;
46365;SDS011;32073;49.166;8.076;2022-08-11T12:34:59;2.75;;;1.00;;
46365;SDS011;32073;49.166;8.076;2022-08-11T12:39:00;1.50;;;0.98;;
46365;SDS011;32073;49.166;8.076;2022-08-11T12:43:18;1.67;;;0.90;;
46365;SDS011;32073;49.166;8.076;2022-08-11T12:47:40;1.88;;;0.90;;
46365;SDS011;32073;49.166;8.076;2022-08-11T12:52:07;1.10;;;0.90;;
46365;SDS011;32073;49.166;8.076;2022-08-11T12:56:11;1.08;;;0.90;;
46365;SDS011;32073;49.166;8.076;2022-08-11T13:00:31;1.08;;;0.90;;
46365;SDS011;32073;49.166;8.076;2022-08-11T13:04:51;1.70;;;1.27;;
46365;SDS011;32073;49.166;8.076;2022-08-11T13:08:58;1.30;;;0.85;;
46365;SDS011;32073;49.166;8.076;2022-08-11T13:12:59;4.45;;;0.90;;
46365;SDS011;32073;49.166;8.076;2022-08-11T13:17:00;0.85;;;0.80;;
46365;SDS011;32073;49.166;8.076;2022-08-11T13:21:20;1.50;;;0.90;;
46365;SDS011;32073;49.166;8.076;2022-08-11T13:25:23;1.73;;;1.00;;
46365;SDS011;32073;49.166;8.076;2022-08-11T13:29:26;1.42;;;0.93;;
46365;SDS011;32073;49.166;8.076;2022-08-11T13:33:28;2.10;;;1.10;;
46365;SDS011;32073;49.166;8.076;2022-08-11T13:37:31;2.17;;;0.93;;
46365;SDS011;32073;49.166;8.076;2022-08-11T13:41:34;4.10;;;1.00;;
46365;SDS011;32073;49.166;8.076;2022-08-11T13:45:44;1.83;;;0.90;;
46365;SDS011;32073;49.166;8.076;2022-08-11T13:49:46;1.85;;;0.82;;
46365;SDS011;32073;49.166;8.076;2022-08-11T13:53:47;2.78;;;0.95;;
46365;SDS011;32073;49.166;8.076;2022-08-11T13:57:50;1.25;;;0.80;;
46365;SDS011;32073;49.166;8.076;2022-08-11T14:01:53;3.38;;;1.13;;
46365;SDS011;32073;49.166;8.076;2022-08-11T14:05:56;1.35;;;0.80;;
46365;SDS011;32073;49.166;8.076;2022-08-11T14:09:59;3.45;;;0.93;;
46365;SDS011;32073;49.166;8.076;2022-08-11T14:14:04;1.42;;;0.90;;
46365;SDS011;32073;49.166;8.076;2022-08-11T14:18:10;1.77;;;1.00;;
46365;SDS011;32073;49.166;8.076;2022-08-11T14:22:18;2.60;;;1.23;;
46365;SDS011;32073;49.166;8.076;2022-08-11T14:26:21;2.38;;;1.00;;
46365;SDS011;32073;49.166;8.076;2022-08-11T14:30:22;1.83;;;1.15;;
46365;SDS011;32073;49.166;8.076;2022-08-11T14:34:42;1.35;;;0.80;;
46365;SDS011;32073;49.166;8.076;2022-08-11T14:38:44;0.90;;;0.80;;
46365;SDS011;32073;49.166;8.076;2022-08-11T14:42:45;1.25;;;1.02;;
46365;SDS011;32073;49.166;8.076;2022-08-11T14:47:04;1.00;;;0.90;;
46365;SDS011;32073;49.166;8.076;2022-08-11T14:51:05;1.40;;;0.77;;
46365;SDS011;32073;49.166;8.076;2022-08-11T14:55:06;4.07;;;1.15;;
46365;SDS011;32073;49.166;8.076;2022-08-11T14:59:26;3.80;;;1.40;;
46365;SDS011;32073;49.166;8.076;2022-08-11T15:03:27;2.13;;;0.90;;
46365;SDS011;32073;49.166;8.076;2022-08-11T15:07:32;4.40;;;0.93;;
46365;SDS011;32073;49.166;8.076;2022-08-11T15:11:33;2.20;;;1.10;;
46365;SDS011;32073;49.166;8.076;2022-08-11T15:15:53;1.13;;;0.95;;
46365;SDS011;32073;49.166;8.076;2022-08-11T15:20:13;1.00;;;0.70;;
46365;SDS011;32073;49.166;8.076;2022-08-11T15:24:35;1.27;;;0.90;;
46365;SDS011;32073;49.166;8.076;2022-08-11T15:28:38;1.45;;;0.70;;
46365;SDS011;32073;49.166;8.076;2022-08-11T15:33:07;1.17;;;0.88;;
46365;SDS011;32073;49.166;8.076;2022-08-11T15:37:29;3.53;;;1.10;;
46365;SDS011;32073;49.166;8.076;2022-08-11T15:41:45;1.58;;;0.90;;
46365;SDS011;32073;49.166;8.076;2022-08-11T15:46:17;9.40;;;1.23;;
46365;SDS011;32073;49.166;8.076;2022-08-11T15:50:29;1.35;;;0.77;;
46365;SDS011;32073;49.166;8.076;2022-08-11T15:54:34;2.13;;;0.90;;
46365;SDS011;32073;49.166;8.076;2022-08-11T15:58:45;1.25;;;0.93;;
46365;SDS011;32073;49.166;8.076;2022-08-11T16:03:05;3.95;;;1.02;;
46365;SDS011;32073;49.166;8.076;2022-08-11T16:07:28;2.00;;;1.17;;
46365;SDS011;32073;49.166;8.076;2022-08-11T16:11:34;4.07;;;1.02;;
46365;SDS011;32073;49.166;8.076;2022-08-11T16:15:37;2.70;;;0.90;;
46365;SDS011;32073;49.166;8.076;2022-08-11T16:20:02;4.25;;;0.80;;
46365;SDS011;32073;49.166;8.076;2022-08-11T16:24:05;0.98;;;0.70;;
46365;SDS011;32073;49.166;8.076;2022-08-11T16:28:09;2.22;;;1.23;;
46365;SDS011;32073;49.166;8.076;2022-08-11T16:32:12;1.60;;;1.13;;
46365;SDS011;32073;49.166;8.076;2022-08-11T16:36:19;4.80;;;0.80;;
46365;SDS011;32073;49.166;8.076;2022-08-11T16:40:41;1.80;;;0.80;;
46365;SDS011;32073;49.166;8.076;2022-08-11T16:44:43;1.20;;;0.85;;
46365;SDS011;32073;49.166;8.076;2022-08-11T16:49:06;2.35;;;0.90;;
46365;SDS011;32073;49.166;8.076;2022-08-11T16:53:48;3.05;;;1.05;;
46365;SDS011;32073;49.166;8.076;2022-08-11T16:57:50;1.92;;;0.82;;
46365;SDS011;32073;49.166;8.076;2022-08-11T17:02:10;1.73;;;0.90;;
46365;SDS011;32073;49.166;8.076;2022-08-11T17:06:34;4.25;;;1.13;;
46365;SDS011;32073;49.166;8.076;2022-08-11T17:11:01;1.95;;;0.80;;
46365;SDS011;32073;49.166;8.076;2022-08-11T17:15:22;1.30;;;0.93;;
46365;SDS011;32073;49.166;8.076;2022-08-11T17:19:48;2.33;;;1.15;;
46365;SDS011;32073;49.166;8.076;2022-08-11T17:24:03;3.10;;;1.00;;
46365;SDS011;32073;49.166;8.076;2022-08-11T17:28:07;2.75;;;0.68;;
46365;SDS011;32073;49.166;8.076;2022-08-11T17:32:15;1.80;;;0.93;;
46365;SDS011;32073;49.166;8.076;2022-08-11T17:36:37;1.42;;;1.00;;
46365;SDS011;32073;49.166;8.076;2022-08-11T17:40:53;2.65;;;0.90;;
46365;SDS011;32073;49.166;8.076;2022-08-11T17:45:21;3.40;;;0.82;;
46365;SDS011;32073;49.166;8.076;2022-08-11T17:49:41;1.60;;;0.80;;
46365;SDS011;32073;49.166;8.076;2022-08-11T17:53:42;1.00;;;0.70;;
46365;SDS011;32073;49.166;8.076;2022-08-11T17:58:04;5.60;;;0.82;;
46365;SDS011;32073;49.166;8.076;2022-08-11T18:02:25;1.05;;;0.80;;
46365;SDS011;32073;49.166;8.076;2022-08-11T18:06:50;3.17;;;0.75;;
46365;SDS011;32073;49.166;8.076;2022-08-11T18:10:53;2.35;;;0.90;;
46365;SDS011;32073;49.166;8.076;2022-08-11T18:15:14;1.80;;;1.00;;
46365;SDS011;32073;49.166;8.076;2022-08-11T18:19:34;1.40;;;0.77;;
46365;SDS011;32073;49.166;8.076;2022-08-11T18:23:54;1.67;;;0.85;;
46365;SDS011;32073;49.166;8.076;2022-08-11T18:28:14;1.75;;;1.08;;
46365;SDS011;32073;49.166;8.076;2022-08-11T18:32:39;1.20;;;0.90;;
46365;SDS011;32073;49.166;8.076;2022-08-11T18:37:02;1.13;;;0.90;;
46365;SDS011;32073;49.166;8.076;2022-08-11T18:41:28;2.00;;;0.82;;
46365;SDS011;32073;49.166;8.076;2022-08-11T18:45:51;1.35;;;0.73;;
46365;SDS011;32073;49.166;8.076;2022-08-11T18:50:15;2.90;;;0.68;;
46365;SDS011;32073;49.166;8.076;2022-08-11T18:54:37;0.98;;;0.77;;
46365;SDS011;32073;49.166;8.076;2022-08-11T18:58:59;2.00;;;0.77;;
46365;SDS011;32073;49.166;8.076;2022-08-11T19:03:20;1.67;;;1.00;;
46365;SDS011;32073;49.166;8.076;2022-08-11T19:07:42;2.95;;;0.95;;
46365;SDS011;32073;49.166;8.076;2022-08-11T19:12:06;1.60;;;0.80;;
46365;SDS011;32073;49.166;8.076;2022-08-11T19:16:28;5.75;;;1.05;;
46365;SDS011;32073;49.166;8.076;2022-08-11T19:20:49;1.35;;;0.90;;
46365;SDS011;32073;49.166;8.076;2022-08-11T19:25:09;1.42;;;0.90;;
46365;SDS011;32073;49.166;8.076;2022-08-11T19:29:30;2.95;;;1.40;;
46365;SDS011;32073;49.166;8.076;2022-08-11T19:33:51;1.55;;;0.98;;
46365;SDS011;32073;49.166;8.076;2022-08-11T19:38:13;1.83;;;0.90;;
46365;SDS011;32073;49.166;8.076;2022-08-11T19:42:35;1.67;;;1.08;;
46365;SDS011;32073;49.166;8.076;2022-08-11T19:46:55;1.63;;;1.25;;
46365;SDS011;32073;49.166;8.076;2022-08-11T19:51:16;2.80;;;0.93;;
46365;SDS011;32073;49.166;8.076;2022-08-11T19:55:37;1.30;;;1.00;;
46365;SDS011;32073;49.166;8.076;2022-08-11T19:59:57;2.28;;;0.90;;
46365;SDS011;32073;49.166;8.076;2022-08-11T20:04:16;2.92;;;1.10;;
46365;SDS011;32073;49.166;8.076;2022-08-11T20:08:36;2.63;;;0.82;;
46365;SDS011;32073;49.166;8.076;2022-08-11T20:13:00;2.97;;;1.30;;
46365;SDS011;32073;49.166;8.076;2022-08-11T20:17:21;1.40;;;1.10;;
46365;SDS011;32073;49.166;8.076;2022-08-11T20:21:45;2.00;;;1.10;;
46365;SDS011;32073;49.166;8.076;2022-08-11T20:26:05;3.15;;;0.90;;
46365;SDS011;32073;49.166;8.076;2022-08-11T20:30:26;1.48;;;0.93;;
46365;SDS011;32073;49.166;8.076;2022-08-11T20:34:47;1.15;;;1.05;;
46365;SDS011;32073;49.166;8.076;2022-08-11T20:39:06;1.67;;;1.20;;
46365;SDS011;32073;49.166;8.076;2022-08-11T20:43:27;1.08;;;0.98;;
46365;SDS011;32073;49.166;8.076;2022-08-11T20:47:49;1.08;;;0.80;;
46365;SDS011;32073;49.166;8.076;2022-08-11T20:52:12;2.60;;;1.02;;
46365;SDS011;32073;49.166;8.076;2022-08-11T20:56:34;2.80;;;0.98;;
46365;SDS011;32073;49.166;8.076;2022-08-11T21:00:54;3.97;;;1.27;;
46365;SDS011;32073;49.166;8.076;2022-08-11T21:05:13;1.92;;;1.33;;
46365;SDS011;32073;49.166;8.076;2022-08-11T21:09:33;1.50;;;1.08;;
46365;SDS011;32073;49.166;8.076;2022-08-11T21:13:54;1.08;;;0.95;;
46365;SDS011;32073;49.166;8.076;2022-08-11T21:18:17;1.33;;;1.00;;
46365;SDS011;32073;49.166;8.076;2022-08-11T21:22:43;1.10;;;0.90;;
46365;SDS011;32073;49.166;8.076;2022-08-11T21:27:08;1.42;;;0.93;;
46365;SDS011;32073;49.166;8.076;2022-08-11T21:31:31;1.05;;;0.90;;
46365;SDS011;32073;49.166;8.076;2022-08-11T21:35:52;3.10;;;1.00;;
46365;SDS011;32073;49.166;8.076;2022-08-11T21:40:14;2.08;;;1.00;;
46365;SDS011;32073;49.166;8.076;2022-08-11T21:44:34;1.48;;;0.85;;
46365;SDS011;32073;49.166;8.076;2022-08-11T21:48:54;0.80;;;0.80;;
46365;SDS011;32073;49.166;8.076;2022-08-11T21:53:15;1.92;;;1.25;;
46365;SDS011;32073;49.166;8.076;2022-08-11T21:57:35;1.20;;;0.85;;
46365;SDS011;32073;49.166;8.076;2022-08-11T22:01:55;1.55;;;0.80;;
46365;SDS011;32073;49.166;8.076;2022-08-11T22:06:16;0.73;;;0.70;;
46365;SDS011;32073;49.166;8.076;2022-08-11T22:10:38;1.38;;;1.15;;
46365;SDS011;32073;49.166;8.076;2022-08-11T22:14:58;1.10;;;0.98;;
46365;SDS011;32073;49.166;8.076;2022-08-11T22:19:17;1.35;;;1.05;;
46365;SDS011;32073;49.166;8.076;2022-08-11T22:23:38;1.33;;;0.90;;
46365;SDS011;32073;49.166;8.076;2022-08-11T22:27:59;1.60;;;1.10;;
46365;SDS011;32073;49.166;8.076;2022-08-11T22:32:18;2.97;;;0.80;;
46365;SDS011;32073;49.166;8.076;2022-08-11T22:36:39;1.50;;;0.70;;
46365;SDS011;32073;49.166;8.076;2022-08-11T22:41:00;0.93;;;0.80;;
46365;SDS011;32073;49.166;8.076;2022-08-11T22:45:20;0.93;;;0.75;;
46365;SDS011;32073;49.166;8.076;2022-08-11T22:49:39;1.15;;;1.05;;
46365;SDS011;32073;49.166;8.076;2022-08-11T22:54:01;0.90;;;0.80;;
46365;SDS011;32073;49.166;8.076;2022-08-11T22:58:21;2.38;;;1.08;;
46365;SDS011;32073;49.166;8.076;2022-08-11T23:02:42;2.30;;;1.20;;
46365;SDS011;32073;49.166;8.076;2022-08-11T23:07:01;1.80;;;1.00;;
46365;SDS011;32073;49.166;8.076;2022-08-11T23:11:21;2.70;;;1.05;;
46365;SDS011;32073;49.166;8.076;2022-08-11T23:15:40;2.22;;;1.38;;
46365;SDS011;32073;49.166;8.076;2022-08-11T23:20:00;1.08;;;0.98;;
46365;SDS011;32073;49.166;8.076;2022-08-11T23:24:20;2.00;;;1.02;;
46365;SDS011;32073;49.166;8.076;2022-08-11T23:28:40;3.42;;;1.30;;
46365;SDS011;32073;49.166;8.076;2022-08-11T23:33:00;1.40;;;1.15;;
46365;SDS011;32073;49.166;8.076;2022-08-11T23:37:20;2.35;;;1.60;;
46365;SDS011;32073;49.166;8.076;2022-08-11T23:41:41;1.95;;;1.30;;
46365;SDS011;32073;49.166;8.076;2022-08-11T23:46:02;2.42;;;1.27;;
46365;SDS011;32073;49.166;8.076;2022-08-11T23:50:21;5.68;;;1.48;;
46365;SDS011;32073;49.166;8.076;2022-08-11T23:54:42;1.27;;;0.98;;
46365;SDS011;32073;49.166;8.076;2022-08-11T23:59:03;1.55;;;1.10;;
